sensor_id;sensor_type;location;lat;lon;timestamp;P1;durP1;ratioP1;P2;durP2;ratioP2
16963;SDS011;8598;50.508;10.436;2023-03-01T00:02:13;24.77;;;14.47;;
16963;SDS011;8598;50.508;10.436;2023-03-01T00:04:40;26.47;;;13.73;;
16963;SDS011;8598;50.508;10.436;2023-03-01T00:07:08;31.80;;;15.77;;
16963;SDS011;8598;50.508;10.436;2023-03-01T00:09:35;26.47;;;14.47;;
16963;SDS011;8598;50.508;10.436;2023-03-01T00:12:03;23.73;;;13.13;;
16963;SDS011;8598;50.508;10.436;2023-03-01T00:14:31;23.63;;;13.47;;
16963;SDS011;8598;50.508;10.436;2023-03-01T00:16:57;32.93;;;14.20;;
16963;SDS011;8598;50.508;10.436;2023-03-01T00:19:24;30.80;;;13.90;;
16963;SDS011;8598;50.508;10.436;2023-03-01T00:21:51;22.80;;;13.83;;
16963;SDS011;8598;50.508;10.436;2023-03-01T00:24:19;21.00;;;12.47;;
16963;SDS011;8598;50.508;10.436;2023-03-01T00:26:45;26.80;;;12.50;;
16963;SDS011;8598;50.508;10.436;2023-03-01T00:29:12;20.63;;;11.27;;
16963;SDS011;8598;50.508;10.436;2023-03-01T00:31:39;26.47;;;12.57;;
16963;SDS011;8598;50.508;10.436;2023-03-01T00:34:05;25.90;;;13.13;;
16963;SDS011;8598;50.508;10.436;2023-03-01T00:36:33;27.87;;;13.60;;
16963;SDS011;8598;50.508;10.436;2023-03-01T00:39:02;19.10;;;11.77;;
16963;SDS011;8598;50.508;10.436;2023-03-01T00:41:31;22.30;;;12.43;;
16963;SDS011;8598;50.508;10.436;2023-03-01T00:43:59;22.87;;;12.43;;
16963;SDS011;8598;50.508;10.436;2023-03-01T00:46:26;23.07;;;12.43;;
16963;SDS011;8598;50.508;10.436;2023-03-01T00:48:55;20.93;;;12.47;;
16963;SDS011;8598;50.508;10.436;2023-03-01T00:51:23;22.53;;;12.17;;
16963;SDS011;8598;50.508;10.436;2023-03-01T00:53:51;22.10;;;12.73;;
16963;SDS011;8598;50.508;10.436;2023-03-01T00:56:18;23.30;;;12.10;;
16963;SDS011;8598;50.508;10.436;2023-03-01T00:58:47;21.37;;;12.07;;
16963;SDS011;8598;50.508;10.436;2023-03-01T01:01:14;24.30;;;12.33;;
16963;SDS011;8598;50.508;10.436;2023-03-01T01:03:45;23.57;;;13.10;;
16963;SDS011;8598;50.508;10.436;2023-03-01T01:06:13;22.23;;;12.87;;
16963;SDS011;8598;50.508;10.436;2023-03-01T01:08:41;22.93;;;11.57;;
16963;SDS011;8598;50.508;10.436;2023-03-01T01:11:08;24.67;;;13.43;;
16963;SDS011;8598;50.508;10.436;2023-03-01T01:13:35;25.53;;;12.27;;
16963;SDS011;8598;50.508;10.436;2023-03-01T01:16:04;25.13;;;12.93;;
16963;SDS011;8598;50.508;10.436;2023-03-01T01:18:31;29.30;;;13.10;;
16963;SDS011;8598;50.508;10.436;2023-03-01T01:21:02;24.63;;;12.27;;
16963;SDS011;8598;50.508;10.436;2023-03-01T01:23:30;26.17;;;13.03;;
16963;SDS011;8598;50.508;10.436;2023-03-01T01:25:56;20.03;;;12.17;;
16963;SDS011;8598;50.508;10.436;2023-03-01T01:28:23;23.50;;;12.93;;
16963;SDS011;8598;50.508;10.436;2023-03-01T01:30:49;21.47;;;13.03;;
16963;SDS011;8598;50.508;10.436;2023-03-01T01:33:17;26.70;;;13.23;;
16963;SDS011;8598;50.508;10.436;2023-03-01T01:35:45;22.80;;;13.27;;
16963;SDS011;8598;50.508;10.436;2023-03-01T01:38:11;29.33;;;13.83;;
16963;SDS011;8598;50.508;10.436;2023-03-01T01:40:42;20.40;;;11.83;;
16963;SDS011;8598;50.508;10.436;2023-03-01T01:43:12;20.90;;;10.87;;
16963;SDS011;8598;50.508;10.436;2023-03-01T01:45:46;26.57;;;12.77;;
16963;SDS011;8598;50.508;10.436;2023-03-01T01:48:14;21.43;;;12.27;;
16963;SDS011;8598;50.508;10.436;2023-03-01T01:50:45;20.80;;;12.40;;
16963;SDS011;8598;50.508;10.436;2023-03-01T01:53:17;20.87;;;12.27;;
16963;SDS011;8598;50.508;10.436;2023-03-01T01:55:47;22.87;;;12.10;;
16963;SDS011;8598;50.508;10.436;2023-03-01T01:58:18;22.27;;;12.53;;
16963;SDS011;8598;50.508;10.436;2023-03-01T02:00:47;24.77;;;11.97;;
16963;SDS011;8598;50.508;10.436;2023-03-01T02:03:14;21.80;;;11.90;;
16963;SDS011;8598;50.508;10.436;2023-03-01T02:05:46;19.63;;;11.93;;
16963;SDS011;8598;50.508;10.436;2023-03-01T02:08:17;23.20;;;12.00;;
16963;SDS011;8598;50.508;10.436;2023-03-01T02:10:45;19.17;;;11.93;;
16963;SDS011;8598;50.508;10.436;2023-03-01T02:13:13;24.63;;;12.10;;
16963;SDS011;8598;50.508;10.436;2023-03-01T02:15:40;21.53;;;11.57;;
16963;SDS011;8598;50.508;10.436;2023-03-01T02:18:09;19.80;;;11.93;;
16963;SDS011;8598;50.508;10.436;2023-03-01T02:20:39;21.10;;;12.17;;
16963;SDS011;8598;50.508;10.436;2023-03-01T02:23:12;21.30;;;11.57;;
16963;SDS011;8598;50.508;10.436;2023-03-01T02:25:41;25.67;;;12.37;;
16963;SDS011;8598;50.508;10.436;2023-03-01T02:28:22;19.33;;;11.83;;
16963;SDS011;8598;50.508;10.436;2023-03-01T02:30:51;22.37;;;12.27;;
16963;SDS011;8598;50.508;10.436;2023-03-01T02:33:37;22.27;;;12.30;;
16963;SDS011;8598;50.508;10.436;2023-03-01T02:36:06;22.43;;;12.53;;
16963;SDS011;8598;50.508;10.436;2023-03-01T02:38:36;18.17;;;10.20;;
16963;SDS011;8598;50.508;10.436;2023-03-01T02:41:03;21.10;;;11.83;;
16963;SDS011;8598;50.508;10.436;2023-03-01T02:43:34;26.10;;;12.20;;
16963;SDS011;8598;50.508;10.436;2023-03-01T02:46:03;19.13;;;11.43;;
16963;SDS011;8598;50.508;10.436;2023-03-01T02:48:39;22.37;;;11.40;;
16963;SDS011;8598;50.508;10.436;2023-03-01T02:51:10;17.87;;;11.50;;
16963;SDS011;8598;50.508;10.436;2023-03-01T02:53:45;19.40;;;12.10;;
16963;SDS011;8598;50.508;10.436;2023-03-01T02:56:21;21.03;;;10.83;;
16963;SDS011;8598;50.508;10.436;2023-03-01T02:58:49;18.23;;;10.60;;
16963;SDS011;8598;50.508;10.436;2023-03-01T03:01:16;22.17;;;12.13;;
16963;SDS011;8598;50.508;10.436;2023-03-01T03:03:44;17.43;;;10.23;;
16963;SDS011;8598;50.508;10.436;2023-03-01T03:06:10;20.47;;;10.97;;
16963;SDS011;8598;50.508;10.436;2023-03-01T03:08:37;20.13;;;11.07;;
16963;SDS011;8598;50.508;10.436;2023-03-01T03:11:04;22.17;;;11.77;;
16963;SDS011;8598;50.508;10.436;2023-03-01T03:13:30;22.17;;;12.00;;
16963;SDS011;8598;50.508;10.436;2023-03-01T03:15:58;22.67;;;10.53;;
16963;SDS011;8598;50.508;10.436;2023-03-01T03:18:25;20.30;;;10.70;;
16963;SDS011;8598;50.508;10.436;2023-03-01T03:20:52;23.37;;;11.23;;
16963;SDS011;8598;50.508;10.436;2023-03-01T03:23:19;19.90;;;10.60;;
16963;SDS011;8598;50.508;10.436;2023-03-01T03:25:47;20.30;;;11.70;;
16963;SDS011;8598;50.508;10.436;2023-03-01T03:28:14;18.73;;;12.17;;
16963;SDS011;8598;50.508;10.436;2023-03-01T03:30:43;24.27;;;11.80;;
16963;SDS011;8598;50.508;10.436;2023-03-01T03:33:11;22.00;;;11.13;;
16963;SDS011;8598;50.508;10.436;2023-03-01T03:35:40;19.47;;;11.30;;
16963;SDS011;8598;50.508;10.436;2023-03-01T03:38:09;21.00;;;11.63;;
16963;SDS011;8598;50.508;10.436;2023-03-01T03:40:41;22.73;;;12.80;;
16963;SDS011;8598;50.508;10.436;2023-03-01T03:43:09;25.70;;;12.73;;
16963;SDS011;8598;50.508;10.436;2023-03-01T03:45:37;22.97;;;12.50;;
16963;SDS011;8598;50.508;10.436;2023-03-01T03:48:05;19.90;;;11.07;;
16963;SDS011;8598;50.508;10.436;2023-03-01T03:50:35;21.93;;;11.53;;
16963;SDS011;8598;50.508;10.436;2023-03-01T03:53:03;17.60;;;10.70;;
16963;SDS011;8598;50.508;10.436;2023-03-01T03:55:31;23.47;;;11.27;;
16963;SDS011;8598;50.508;10.436;2023-03-01T03:57:59;25.10;;;12.03;;
16963;SDS011;8598;50.508;10.436;2023-03-01T04:00:31;20.37;;;11.47;;
16963;SDS011;8598;50.508;10.436;2023-03-01T04:02:59;21.90;;;12.17;;
16963;SDS011;8598;50.508;10.436;2023-03-01T04:05:26;19.60;;;11.33;;
16963;SDS011;8598;50.508;10.436;2023-03-01T04:07:54;23.47;;;12.20;;
16963;SDS011;8598;50.508;10.436;2023-03-01T04:10:27;22.37;;;12.50;;
16963;SDS011;8598;50.508;10.436;2023-03-01T04:12:54;22.93;;;12.10;;
16963;SDS011;8598;50.508;10.436;2023-03-01T04:15:22;21.40;;;11.93;;
16963;SDS011;8598;50.508;10.436;2023-03-01T04:17:50;20.23;;;11.43;;
16963;SDS011;8598;50.508;10.436;2023-03-01T04:20:19;21.77;;;11.47;;
16963;SDS011;8598;50.508;10.436;2023-03-01T04:22:50;19.87;;;11.17;;
16963;SDS011;8598;50.508;10.436;2023-03-01T04:25:19;22.60;;;12.60;;
16963;SDS011;8598;50.508;10.436;2023-03-01T04:27:45;22.50;;;12.33;;
16963;SDS011;8598;50.508;10.436;2023-03-01T04:30:12;33.27;;;18.73;;
16963;SDS011;8598;50.508;10.436;2023-03-01T04:32:39;28.13;;;14.13;;
16963;SDS011;8598;50.508;10.436;2023-03-01T04:35:06;22.80;;;13.23;;
16963;SDS011;8598;50.508;10.436;2023-03-01T04:37:33;20.30;;;12.23;;
16963;SDS011;8598;50.508;10.436;2023-03-01T04:40:00;23.03;;;13.97;;
16963;SDS011;8598;50.508;10.436;2023-03-01T04:42:38;21.90;;;12.07;;
16963;SDS011;8598;50.508;10.436;2023-03-01T04:45:06;22.47;;;11.97;;
16963;SDS011;8598;50.508;10.436;2023-03-01T04:47:37;22.90;;;11.83;;
16963;SDS011;8598;50.508;10.436;2023-03-01T04:50:05;23.23;;;12.50;;
16963;SDS011;8598;50.508;10.436;2023-03-01T04:52:32;21.87;;;12.27;;
16963;SDS011;8598;50.508;10.436;2023-03-01T04:54:59;24.40;;;12.90;;
16963;SDS011;8598;50.508;10.436;2023-03-01T04:57:26;23.03;;;12.37;;
16963;SDS011;8598;50.508;10.436;2023-03-01T04:59:53;24.77;;;12.57;;
16963;SDS011;8598;50.508;10.436;2023-03-01T05:02:20;22.07;;;12.77;;
16963;SDS011;8598;50.508;10.436;2023-03-01T05:04:47;24.80;;;12.07;;
16963;SDS011;8598;50.508;10.436;2023-03-01T05:07:13;27.43;;;12.93;;
16963;SDS011;8598;50.508;10.436;2023-03-01T05:09:44;21.87;;;12.43;;
16963;SDS011;8598;50.508;10.436;2023-03-01T05:12:11;24.90;;;13.40;;
16963;SDS011;8598;50.508;10.436;2023-03-01T05:14:38;23.33;;;12.47;;
16963;SDS011;8598;50.508;10.436;2023-03-01T05:17:06;23.67;;;11.60;;
16963;SDS011;8598;50.508;10.436;2023-03-01T05:19:33;23.57;;;12.50;;
16963;SDS011;8598;50.508;10.436;2023-03-01T05:22:00;24.47;;;12.97;;
16963;SDS011;8598;50.508;10.436;2023-03-01T05:24:29;21.23;;;12.10;;
16963;SDS011;8598;50.508;10.436;2023-03-01T05:26:57;24.77;;;12.40;;
16963;SDS011;8598;50.508;10.436;2023-03-01T05:29:25;24.93;;;12.63;;
16963;SDS011;8598;50.508;10.436;2023-03-01T05:31:53;27.33;;;12.03;;
16963;SDS011;8598;50.508;10.436;2023-03-01T05:34:24;25.17;;;12.67;;
16963;SDS011;8598;50.508;10.436;2023-03-01T05:36:51;23.20;;;12.33;;
16963;SDS011;8598;50.508;10.436;2023-03-01T05:39:19;22.97;;;12.17;;
16963;SDS011;8598;50.508;10.436;2023-03-01T05:41:47;25.50;;;12.43;;
16963;SDS011;8598;50.508;10.436;2023-03-01T05:44:14;24.67;;;12.30;;
16963;SDS011;8598;50.508;10.436;2023-03-01T05:46:40;24.97;;;12.77;;
16963;SDS011;8598;50.508;10.436;2023-03-01T05:49:07;33.43;;;13.80;;
16963;SDS011;8598;50.508;10.436;2023-03-01T05:51:35;23.43;;;12.20;;
16963;SDS011;8598;50.508;10.436;2023-03-01T05:54:02;22.23;;;11.10;;
16963;SDS011;8598;50.508;10.436;2023-03-01T05:56:31;22.77;;;12.10;;
16963;SDS011;8598;50.508;10.436;2023-03-01T05:58:59;23.93;;;12.27;;
16963;SDS011;8598;50.508;10.436;2023-03-01T06:01:25;24.80;;;13.57;;
16963;SDS011;8598;50.508;10.436;2023-03-01T06:03:52;25.70;;;13.13;;
16963;SDS011;8598;50.508;10.436;2023-03-01T06:06:19;23.10;;;12.67;;
16963;SDS011;8598;50.508;10.436;2023-03-01T06:08:47;25.93;;;12.07;;
16963;SDS011;8598;50.508;10.436;2023-03-01T06:11:13;19.80;;;11.70;;
16963;SDS011;8598;50.508;10.436;2023-03-01T06:13:40;30.67;;;15.23;;
16963;SDS011;8598;50.508;10.436;2023-03-01T06:16:07;27.63;;;14.93;;
16963;SDS011;8598;50.508;10.436;2023-03-01T06:18:35;29.80;;;14.33;;
16963;SDS011;8598;50.508;10.436;2023-03-01T06:21:01;25.63;;;13.40;;
16963;SDS011;8598;50.508;10.436;2023-03-01T06:23:28;32.53;;;15.93;;
16963;SDS011;8598;50.508;10.436;2023-03-01T06:25:56;27.23;;;14.83;;
16963;SDS011;8598;50.508;10.436;2023-03-01T06:28:23;29.10;;;13.63;;
16963;SDS011;8598;50.508;10.436;2023-03-01T06:30:50;26.20;;;13.47;;
16963;SDS011;8598;50.508;10.436;2023-03-01T06:33:17;28.80;;;13.77;;
16963;SDS011;8598;50.508;10.436;2023-03-01T06:35:45;21.97;;;12.60;;
16963;SDS011;8598;50.508;10.436;2023-03-01T06:38:12;22.03;;;12.03;;
16963;SDS011;8598;50.508;10.436;2023-03-01T06:40:40;23.30;;;13.67;;
16963;SDS011;8598;50.508;10.436;2023-03-01T06:43:08;22.97;;;12.10;;
16963;SDS011;8598;50.508;10.436;2023-03-01T06:45:34;19.50;;;11.33;;
16963;SDS011;8598;50.508;10.436;2023-03-01T06:48:02;25.13;;;13.73;;
16963;SDS011;8598;50.508;10.436;2023-03-01T06:50:30;25.60;;;13.77;;
16963;SDS011;8598;50.508;10.436;2023-03-01T06:52:56;20.37;;;11.17;;
16963;SDS011;8598;50.508;10.436;2023-03-01T06:55:24;17.97;;;10.40;;
16963;SDS011;8598;50.508;10.436;2023-03-01T06:57:53;17.27;;;10.50;;
16963;SDS011;8598;50.508;10.436;2023-03-01T07:00:23;17.47;;;11.33;;
16963;SDS011;8598;50.508;10.436;2023-03-01T07:02:51;19.17;;;11.30;;
16963;SDS011;8598;50.508;10.436;2023-03-01T07:05:18;21.13;;;11.00;;
16963;SDS011;8598;50.508;10.436;2023-03-01T07:07:45;17.30;;;10.53;;
16963;SDS011;8598;50.508;10.436;2023-03-01T07:10:12;19.87;;;12.07;;
16963;SDS011;8598;50.508;10.436;2023-03-01T07:12:39;24.77;;;13.97;;
16963;SDS011;8598;50.508;10.436;2023-03-01T07:15:08;23.43;;;13.43;;
16963;SDS011;8598;50.508;10.436;2023-03-01T07:17:36;17.80;;;10.63;;
16963;SDS011;8598;50.508;10.436;2023-03-01T07:20:04;21.80;;;11.60;;
16963;SDS011;8598;50.508;10.436;2023-03-01T07:22:31;19.97;;;12.33;;
16963;SDS011;8598;50.508;10.436;2023-03-01T07:24:57;28.67;;;11.70;;
16963;SDS011;8598;50.508;10.436;2023-03-01T07:27:24;27.73;;;13.37;;
16963;SDS011;8598;50.508;10.436;2023-03-01T07:29:50;21.73;;;13.77;;
16963;SDS011;8598;50.508;10.436;2023-03-01T07:32:17;21.57;;;13.33;;
16963;SDS011;8598;50.508;10.436;2023-03-01T07:34:45;19.40;;;12.70;;
16963;SDS011;8598;50.508;10.436;2023-03-01T07:37:12;23.00;;;12.93;;
16963;SDS011;8598;50.508;10.436;2023-03-01T07:39:38;17.80;;;10.90;;
16963;SDS011;8598;50.508;10.436;2023-03-01T07:42:05;17.60;;;10.43;;
16963;SDS011;8598;50.508;10.436;2023-03-01T07:44:31;18.43;;;11.67;;
16963;SDS011;8598;50.508;10.436;2023-03-01T07:46:59;18.93;;;10.70;;
16963;SDS011;8598;50.508;10.436;2023-03-01T07:49:26;17.43;;;11.23;;
16963;SDS011;8598;50.508;10.436;2023-03-01T07:51:54;19.63;;;11.40;;
16963;SDS011;8598;50.508;10.436;2023-03-01T07:54:21;19.10;;;11.07;;
16963;SDS011;8598;50.508;10.436;2023-03-01T07:56:47;18.00;;;10.77;;
16963;SDS011;8598;50.508;10.436;2023-03-01T07:59:14;18.33;;;11.53;;
16963;SDS011;8598;50.508;10.436;2023-03-01T08:01:41;18.53;;;11.50;;
16963;SDS011;8598;50.508;10.436;2023-03-01T08:04:07;19.53;;;12.37;;
16963;SDS011;8598;50.508;10.436;2023-03-01T08:06:34;20.03;;;12.20;;
16963;SDS011;8598;50.508;10.436;2023-03-01T08:09:03;20.17;;;10.80;;
16963;SDS011;8598;50.508;10.436;2023-03-01T08:11:30;17.07;;;10.63;;
16963;SDS011;8598;50.508;10.436;2023-03-01T08:13:56;14.37;;;10.10;;
16963;SDS011;8598;50.508;10.436;2023-03-01T08:16:23;23.20;;;11.87;;
16963;SDS011;8598;50.508;10.436;2023-03-01T08:18:50;16.73;;;11.13;;
16963;SDS011;8598;50.508;10.436;2023-03-01T08:21:17;16.50;;;10.50;;
16963;SDS011;8598;50.508;10.436;2023-03-01T08:23:44;15.17;;;10.47;;
16963;SDS011;8598;50.508;10.436;2023-03-01T08:26:13;18.73;;;10.30;;
16963;SDS011;8598;50.508;10.436;2023-03-01T08:28:41;16.17;;;10.80;;
16963;SDS011;8598;50.508;10.436;2023-03-01T08:31:14;20.00;;;11.07;;
16963;SDS011;8598;50.508;10.436;2023-03-01T08:33:42;14.77;;;9.67;;
16963;SDS011;8598;50.508;10.436;2023-03-01T08:36:09;17.47;;;10.27;;
16963;SDS011;8598;50.508;10.436;2023-03-01T08:38:35;18.87;;;10.63;;
16963;SDS011;8598;50.508;10.436;2023-03-01T08:41:02;17.80;;;10.00;;
16963;SDS011;8598;50.508;10.436;2023-03-01T08:43:31;18.77;;;11.17;;
16963;SDS011;8598;50.508;10.436;2023-03-01T08:45:57;15.50;;;10.53;;
16963;SDS011;8598;50.508;10.436;2023-03-01T08:48:24;22.07;;;11.87;;
16963;SDS011;8598;50.508;10.436;2023-03-01T08:50:53;19.00;;;10.83;;
16963;SDS011;8598;50.508;10.436;2023-03-01T08:53:19;17.30;;;11.07;;
16963;SDS011;8598;50.508;10.436;2023-03-01T08:55:46;15.43;;;10.67;;
16963;SDS011;8598;50.508;10.436;2023-03-01T08:58:13;17.73;;;10.93;;
16963;SDS011;8598;50.508;10.436;2023-03-01T09:00:41;18.23;;;9.93;;
16963;SDS011;8598;50.508;10.436;2023-03-01T09:03:07;20.20;;;11.20;;
16963;SDS011;8598;50.508;10.436;2023-03-01T09:05:34;14.60;;;9.67;;
16963;SDS011;8598;50.508;10.436;2023-03-01T09:08:01;15.30;;;10.00;;
16963;SDS011;8598;50.508;10.436;2023-03-01T09:10:28;13.53;;;9.07;;
16963;SDS011;8598;50.508;10.436;2023-03-01T09:12:55;16.63;;;9.23;;
16963;SDS011;8598;50.508;10.436;2023-03-01T09:15:21;15.40;;;8.80;;
16963;SDS011;8598;50.508;10.436;2023-03-01T09:17:49;16.50;;;10.33;;
16963;SDS011;8598;50.508;10.436;2023-03-01T09:20:16;28.93;;;15.53;;
16963;SDS011;8598;50.508;10.436;2023-03-01T09:22:43;23.80;;;13.30;;
16963;SDS011;8598;50.508;10.436;2023-03-01T09:25:10;17.50;;;10.70;;
16963;SDS011;8598;50.508;10.436;2023-03-01T09:27:36;15.27;;;9.10;;
16963;SDS011;8598;50.508;10.436;2023-03-01T09:30:03;21.57;;;11.50;;
16963;SDS011;8598;50.508;10.436;2023-03-01T09:32:31;17.87;;;10.47;;
16963;SDS011;8598;50.508;10.436;2023-03-01T09:34:59;16.20;;;9.10;;
16963;SDS011;8598;50.508;10.436;2023-03-01T09:37:29;16.23;;;9.90;;
16963;SDS011;8598;50.508;10.436;2023-03-01T09:39:57;14.97;;;8.80;;
16963;SDS011;8598;50.508;10.436;2023-03-01T09:42:24;16.97;;;9.47;;
16963;SDS011;8598;50.508;10.436;2023-03-01T09:44:51;15.37;;;9.23;;
16963;SDS011;8598;50.508;10.436;2023-03-01T09:47:24;11.10;;;6.90;;
16963;SDS011;8598;50.508;10.436;2023-03-01T09:49:57;14.57;;;8.93;;
16963;SDS011;8598;50.508;10.436;2023-03-01T09:52:29;14.37;;;8.67;;
16963;SDS011;8598;50.508;10.436;2023-03-01T09:55:00;16.63;;;8.70;;
16963;SDS011;8598;50.508;10.436;2023-03-01T09:57:28;13.87;;;9.00;;
16963;SDS011;8598;50.508;10.436;2023-03-01T10:00:07;15.17;;;9.17;;
16963;SDS011;8598;50.508;10.436;2023-03-01T10:02:47;12.40;;;7.20;;
16963;SDS011;8598;50.508;10.436;2023-03-01T10:05:27;10.77;;;7.80;;
16963;SDS011;8598;50.508;10.436;2023-03-01T10:08:17;19.83;;;8.93;;
16963;SDS011;8598;50.508;10.436;2023-03-01T10:10:52;10.37;;;6.70;;
16963;SDS011;8598;50.508;10.436;2023-03-01T10:13:21;14.03;;;7.63;;
16963;SDS011;8598;50.508;10.436;2023-03-01T10:15:53;17.83;;;9.37;;
16963;SDS011;8598;50.508;10.436;2023-03-01T10:18:22;10.57;;;6.60;;
16963;SDS011;8598;50.508;10.436;2023-03-01T10:20:55;11.43;;;7.33;;
16963;SDS011;8598;50.508;10.436;2023-03-01T10:23:24;15.13;;;8.00;;
16963;SDS011;8598;50.508;10.436;2023-03-01T10:25:57;17.60;;;9.83;;
16963;SDS011;8598;50.508;10.436;2023-03-01T10:28:35;14.83;;;8.47;;
16963;SDS011;8598;50.508;10.436;2023-03-01T10:31:12;10.77;;;6.90;;
16963;SDS011;8598;50.508;10.436;2023-03-01T10:33:41;10.87;;;7.27;;
16963;SDS011;8598;50.508;10.436;2023-03-01T10:36:09;11.83;;;7.97;;
16963;SDS011;8598;50.508;10.436;2023-03-01T10:38:47;12.77;;;7.67;;
16963;SDS011;8598;50.508;10.436;2023-03-01T10:41:17;11.30;;;7.23;;
16963;SDS011;8598;50.508;10.436;2023-03-01T10:43:44;12.40;;;6.30;;
16963;SDS011;8598;50.508;10.436;2023-03-01T10:46:21;9.50;;;6.03;;
16963;SDS011;8598;50.508;10.436;2023-03-01T10:48:58;9.23;;;6.63;;
16963;SDS011;8598;50.508;10.436;2023-03-01T10:51:34;12.30;;;7.53;;
16963;SDS011;8598;50.508;10.436;2023-03-01T10:54:00;8.83;;;5.60;;
16963;SDS011;8598;50.508;10.436;2023-03-01T10:56:28;11.20;;;7.33;;
16963;SDS011;8598;50.508;10.436;2023-03-01T10:59:19;11.40;;;6.87;;
16963;SDS011;8598;50.508;10.436;2023-03-01T11:01:52;10.33;;;6.00;;
16963;SDS011;8598;50.508;10.436;2023-03-01T11:04:28;7.97;;;5.80;;
16963;SDS011;8598;50.508;10.436;2023-03-01T11:06:59;10.33;;;6.57;;
16963;SDS011;8598;50.508;10.436;2023-03-01T11:09:30;9.33;;;7.40;;
16963;SDS011;8598;50.508;10.436;2023-03-01T11:12:03;7.20;;;4.73;;
16963;SDS011;8598;50.508;10.436;2023-03-01T11:14:32;9.53;;;6.33;;
16963;SDS011;8598;50.508;10.436;2023-03-01T11:17:03;7.50;;;5.40;;
16963;SDS011;8598;50.508;10.436;2023-03-01T11:19:31;8.27;;;4.90;;
16963;SDS011;8598;50.508;10.436;2023-03-01T11:22:01;7.90;;;5.30;;
16963;SDS011;8598;50.508;10.436;2023-03-01T11:24:39;6.37;;;5.17;;
16963;SDS011;8598;50.508;10.436;2023-03-01T11:27:12;10.07;;;5.73;;
16963;SDS011;8598;50.508;10.436;2023-03-01T11:29:43;9.20;;;5.53;;
16963;SDS011;8598;50.508;10.436;2023-03-01T11:32:16;9.13;;;5.13;;
16963;SDS011;8598;50.508;10.436;2023-03-01T11:34:47;8.20;;;5.40;;
16963;SDS011;8598;50.508;10.436;2023-03-01T11:37:23;7.70;;;5.23;;
16963;SDS011;8598;50.508;10.436;2023-03-01T11:39:59;9.07;;;5.33;;
16963;SDS011;8598;50.508;10.436;2023-03-01T11:42:37;8.07;;;5.13;;
16963;SDS011;8598;50.508;10.436;2023-03-01T11:45:12;6.67;;;4.60;;
16963;SDS011;8598;50.508;10.436;2023-03-01T11:47:43;6.20;;;4.33;;
16963;SDS011;8598;50.508;10.436;2023-03-01T11:50:24;6.70;;;4.33;;
16963;SDS011;8598;50.508;10.436;2023-03-01T11:53:03;7.87;;;4.27;;
16963;SDS011;8598;50.508;10.436;2023-03-01T11:55:46;5.07;;;4.50;;
16963;SDS011;8598;50.508;10.436;2023-03-01T11:58:27;7.40;;;4.43;;
16963;SDS011;8598;50.508;10.436;2023-03-01T12:06:57;5.80;;;3.93;;
16963;SDS011;8598;50.508;10.436;2023-03-01T12:09:39;5.07;;;3.67;;
16963;SDS011;8598;50.508;10.436;2023-03-01T12:12:22;7.23;;;3.77;;
16963;SDS011;8598;50.508;10.436;2023-03-01T12:15:00;5.77;;;3.80;;
16963;SDS011;8598;50.508;10.436;2023-03-01T12:17:40;6.90;;;4.53;;
16963;SDS011;8598;50.508;10.436;2023-03-01T12:20:25;6.77;;;3.77;;
16963;SDS011;8598;50.508;10.436;2023-03-01T12:25:54;5.43;;;3.50;;
16963;SDS011;8598;50.508;10.436;2023-03-01T12:28:31;6.03;;;4.17;;
16963;SDS011;8598;50.508;10.436;2023-03-01T12:31:15;7.07;;;4.60;;
16963;SDS011;8598;50.508;10.436;2023-03-01T12:33:57;10.67;;;4.47;;
16963;SDS011;8598;50.508;10.436;2023-03-01T12:39:25;5.70;;;4.20;;
16963;SDS011;8598;50.508;10.436;2023-03-01T12:42:07;8.67;;;5.00;;
16963;SDS011;8598;50.508;10.436;2023-03-01T12:44:49;6.87;;;5.07;;
16963;SDS011;8598;50.508;10.436;2023-03-01T12:47:31;4.53;;;3.70;;
16963;SDS011;8598;50.508;10.436;2023-03-01T12:50:11;5.80;;;4.37;;
16963;SDS011;8598;50.508;10.436;2023-03-01T12:52:43;7.30;;;4.63;;
16963;SDS011;8598;50.508;10.436;2023-03-01T12:55:18;6.43;;;4.90;;
16963;SDS011;8598;50.508;10.436;2023-03-01T12:57:55;5.40;;;4.27;;
16963;SDS011;8598;50.508;10.436;2023-03-01T13:00:31;6.90;;;4.33;;
16963;SDS011;8598;50.508;10.436;2023-03-01T13:03:04;8.27;;;4.40;;
16963;SDS011;8598;50.508;10.436;2023-03-01T13:05:42;8.83;;;4.20;;
16963;SDS011;8598;50.508;10.436;2023-03-01T13:08:22;6.83;;;4.77;;
16963;SDS011;8598;50.508;10.436;2023-03-01T13:10:56;6.83;;;4.13;;
16963;SDS011;8598;50.508;10.436;2023-03-01T13:13:27;6.77;;;4.50;;
16963;SDS011;8598;50.508;10.436;2023-03-01T13:15:55;9.73;;;4.60;;
16963;SDS011;8598;50.508;10.436;2023-03-01T13:18:32;7.87;;;4.53;;
16963;SDS011;8598;50.508;10.436;2023-03-01T13:20:59;7.83;;;4.50;;
16963;SDS011;8598;50.508;10.436;2023-03-01T13:23:31;5.67;;;4.83;;
16963;SDS011;8598;50.508;10.436;2023-03-01T13:26:01;9.13;;;4.97;;
16963;SDS011;8598;50.508;10.436;2023-03-01T13:28:49;8.43;;;5.37;;
16963;SDS011;8598;50.508;10.436;2023-03-01T13:34:41;9.43;;;6.37;;
16963;SDS011;8598;50.508;10.436;2023-03-01T13:37:19;8.03;;;5.23;;
16963;SDS011;8598;50.508;10.436;2023-03-01T13:43:25;10.33;;;6.80;;
16963;SDS011;8598;50.508;10.436;2023-03-01T13:45:56;10.13;;;6.67;;
16963;SDS011;8598;50.508;10.436;2023-03-01T13:48:24;11.20;;;6.13;;
16963;SDS011;8598;50.508;10.436;2023-03-01T13:50:54;9.97;;;6.60;;
16963;SDS011;8598;50.508;10.436;2023-03-01T13:53:25;9.77;;;7.10;;
16963;SDS011;8598;50.508;10.436;2023-03-01T13:55:56;13.43;;;7.63;;
16963;SDS011;8598;50.508;10.436;2023-03-01T13:58:26;11.80;;;8.07;;
16963;SDS011;8598;50.508;10.436;2023-03-01T14:00:57;14.07;;;8.43;;
16963;SDS011;8598;50.508;10.436;2023-03-01T14:03:26;11.27;;;7.83;;
16963;SDS011;8598;50.508;10.436;2023-03-01T14:05:59;11.63;;;7.93;;
16963;SDS011;8598;50.508;10.436;2023-03-01T14:08:29;16.00;;;8.47;;
16963;SDS011;8598;50.508;10.436;2023-03-01T14:14:11;14.83;;;9.33;;
16963;SDS011;8598;50.508;10.436;2023-03-01T14:16:52;11.10;;;7.83;;
16963;SDS011;8598;50.508;10.436;2023-03-01T14:19:27;14.00;;;9.50;;
16963;SDS011;8598;50.508;10.436;2023-03-01T14:21:58;15.80;;;9.27;;
16963;SDS011;8598;50.508;10.436;2023-03-01T14:24:40;14.13;;;7.50;;
16963;SDS011;8598;50.508;10.436;2023-03-01T14:27:12;15.23;;;8.97;;
16963;SDS011;8598;50.508;10.436;2023-03-01T14:29:39;13.00;;;8.80;;
16963;SDS011;8598;50.508;10.436;2023-03-01T14:32:12;12.87;;;9.40;;
16963;SDS011;8598;50.508;10.436;2023-03-01T14:34:45;12.97;;;9.40;;
16963;SDS011;8598;50.508;10.436;2023-03-01T14:37:19;15.33;;;9.93;;
16963;SDS011;8598;50.508;10.436;2023-03-01T14:39:47;16.03;;;10.33;;
16963;SDS011;8598;50.508;10.436;2023-03-01T14:42:14;14.87;;;9.57;;
16963;SDS011;8598;50.508;10.436;2023-03-01T14:44:42;13.87;;;9.40;;
16963;SDS011;8598;50.508;10.436;2023-03-01T14:47:12;16.30;;;10.50;;
16963;SDS011;8598;50.508;10.436;2023-03-01T14:49:41;15.00;;;9.23;;
16963;SDS011;8598;50.508;10.436;2023-03-01T14:52:17;16.40;;;9.57;;
16963;SDS011;8598;50.508;10.436;2023-03-01T14:54:46;15.47;;;8.47;;
16963;SDS011;8598;50.508;10.436;2023-03-01T14:57:15;14.40;;;9.77;;
16963;SDS011;8598;50.508;10.436;2023-03-01T14:59:43;16.13;;;10.00;;
16963;SDS011;8598;50.508;10.436;2023-03-01T15:02:11;18.37;;;10.53;;
16963;SDS011;8598;50.508;10.436;2023-03-01T15:04:42;17.00;;;10.27;;
16963;SDS011;8598;50.508;10.436;2023-03-01T15:07:11;18.93;;;10.93;;